Time;durP1;ratioP1;P1;durP2;ratioP2;P2;SDS_P1;SDS_P2;PMS_P1;PMS_P2;Temp;Humidity;BMP_temperature;BMP_pressure;BME280_temperature;BME280_humidity;BME280_pressure;Samples;Min_cycle;Max_cycle;Signal;HPM_P1;HPM_P2
2020/12/15 00:01:58;;;;;;;0.33;0.33;;;6.00;99.90;;;;;;5072980;28;20244;-84
2020/12/15 00:04:26;;;;;;;0.87;0.30;;;6.00;99.90;;;;;;5072059;28;20655;-84
2020/12/15 00:06:51;;;;;;;0.40;0.40;;;6.10;99.90;;;;;;5074341;28;20789;-82
2020/12/15 00:09:17;;;;;;;0.40;0.30;;;6.10;99.90;;;;;;5070977;28;20181;-84
2020/12/15 00:11:43;;;;;;;0.20;0.20;;;6.20;99.90;;;;;;5070071;28;20284;-83
2020/12/15 00:14:08;;;;;;;0.83;0.43;;;6.30;99.90;;;;;;5071455;28;20205;-83
2020/12/15 00:16:34;;;;;;;0.07;0.07;;;6.30;99.90;;;;;;5075207;28;20256;-83
2020/12/15 00:18:59;;;;;;;0.33;0.33;;;6.30;99.90;;;;;;5070593;28;20203;-84
2020/12/15 00:21:26;;;;;;;0.23;0.23;;;6.30;99.90;;;;;;5069728;28;20199;-84
2020/12/15 00:23:53;;;;;;;0.43;0.43;;;6.40;99.90;;;;;;5076958;28;20252;-84
2020/12/15 00:26:20;;;;;;;0.20;0.20;;;6.40;99.90;;;;;;5070908;28;20209;-85
2020/12/15 00:28:49;;;;;;;0.10;0.10;;;6.50;99.90;;;;;;5070587;28;20193;-84
2020/12/15 00:31:17;;;;;;;0.20;0.20;;;6.50;99.90;;;;;;5071114;28;20271;-84
2020/12/15 00:33:43;;;;;;;0.20;0.20;;;6.50;99.90;;;;;;5069632;28;20238;-83
2020/12/15 00:36:08;;;;;;;0.10;0.10;;;6.50;99.90;;;;;;5071382;28;20178;-84
2020/12/15 00:38:35;;;;;;;0.20;0.20;;;6.60;99.90;;;;;;5070592;28;20192;-85
2020/12/15 00:41:00;;;;;;;0.50;0.50;;;6.60;99.90;;;;;;5069853;28;20215;-84
2020/12/15 00:43:26;;;;;;;0.33;0.30;;;6.70;99.90;;;;;;5071599;28;20185;-84
2020/12/15 00:45:51;;;;;;;0.57;0.30;;;6.70;99.90;;;;;;5070734;28;20255;-85
2020/12/15 00:48:17;;;;;;;0.40;0.20;;;6.70;99.90;;;;;;5070118;28;20697;-84
2020/12/15 00:50:42;;;;;;;0.40;0.40;;;6.60;99.90;;;;;;5069893;28;20639;-85
2020/12/15 00:53:09;;;;;;;0.50;0.50;;;6.60;99.90;;;;;;5067564;28;20177;-84
2020/12/15 00:55:34;;;;;;;0.20;0.20;;;6.40;99.90;;;;;;5066391;28;20256;-83
2020/12/15 00:58:00;;;;;;;0.40;0.40;;;6.30;99.90;;;;;;5065656;28;20276;-85
2020/12/15 01:00:25;;;;;;;0.20;0.20;;;6.40;99.90;;;;;;5069453;28;20234;-84
2020/12/15 01:02:51;;;;;;;0.30;0.27;;;6.20;99.90;;;;;;5071184;28;20661;-85
2020/12/15 01:05:16;;;;;;;0.70;0.70;;;6.20;99.90;;;;;;5069801;28;20204;-84
2020/12/15 01:07:42;;;;;;;0.20;0.20;;;6.20;99.90;;;;;;5075958;28;20607;-84
2020/12/15 01:10:08;;;;;;;0.20;0.20;;;6.40;99.90;;;;;;5068790;28;20191;-84
2020/12/15 01:12:34;;;;;;;0.63;0.30;;;6.60;99.90;;;;;;5069857;28;20201;-84
2020/12/15 01:15:00;;;;;;;0.10;0.10;;;6.70;99.90;;;;;;5069186;28;20189;-84
2020/12/15 01:17:25;;;;;;;0.20;0.20;;;6.70;99.90;;;;;;5071109;28;20187;-84
2020/12/15 01:19:51;;;;;;;1.13;0.70;;;6.90;99.90;;;;;;5070615;28;20653;-85
2020/12/15 01:22:17;;;;;;;0.43;0.43;;;6.90;99.90;;;;;;5069147;28;20236;-85
2020/12/15 01:24:42;;;;;;;0.10;0.10;;;7.00;99.90;;;;;;5070285;28;20211;-85
2020/12/15 01:27:08;;;;;;;0.37;0.30;;;6.90;99.90;;;;;;5068337;28;20194;-84
2020/12/15 01:29:34;;;;;;;0.13;0.13;;;6.80;99.90;;;;;;5068089;28;20263;-84
2020/12/15 01:32:03;;;;;;;0.13;0.13;;;6.70;99.90;;;;;;5067365;28;20209;-84
2020/12/15 01:34:29;;;;;;;0.30;0.30;;;6.90;99.90;;;;;;5069206;28;20646;-84
2020/12/15 01:36:56;;;;;;;0.10;0.10;;;7.00;99.90;;;;;;5064137;28;20201;-85
2020/12/15 01:39:22;;;;;;;0.10;0.10;;;6.90;99.90;;;;;;5068967;28;20189;-85
2020/12/15 01:41:48;;;;;;;0.10;0.10;;;6.90;99.90;;;;;;5069734;28;20232;-84
2020/12/15 01:44:13;;;;;;;0.23;0.23;;;7.00;99.90;;;;;;5070460;28;20212;-84
2020/12/15 01:46:39;;;;;;;0.50;0.50;;;7.10;99.90;;;;;;5070669;28;20262;-84
2020/12/15 01:49:05;;;;;;;0.10;0.10;;;7.20;99.90;;;;;;5070304;28;20232;-84
2020/12/15 01:51:31;;;;;;;1.03;0.43;;;7.00;99.90;;;;;;5067006;28;20230;-84
2020/12/15 01:54:00;;;;;;;0.20;0.20;;;6.80;99.90;;;;;;5070508;28;20257;-84
2020/12/15 01:56:27;;;;;;;0.27;0.17;;;6.60;99.90;;;;;;5070143;28;20195;-84
2020/12/15 01:58:55;;;;;;;0.60;0.40;;;6.40;99.90;;;;;;5069327;28;20192;-84
2020/12/15 02:01:21;;;;;;;0.33;0.33;;;6.10;99.90;;;;;;5066831;28;20213;-83
2020/12/15 02:03:47;;;;;;;0.10;0.10;;;6.10;99.90;;;;;;5081750;28;20211;-84
2020/12/15 02:06:13;;;;;;;1.03;0.50;;;6.00;99.90;;;;;;5069885;28;20205;-85
2020/12/15 02:08:38;;;;;;;0.30;0.20;;;6.10;99.90;;;;;;5064096;28;20183;-84
2020/12/15 02:11:04;;;;;;;0.20;0.20;;;5.90;99.90;;;;;;5067892;28;20254;-83
2020/12/15 02:13:30;;;;;;;0.80;0.80;;;5.80;99.90;;;;;;5068243;28;20295;-84
2020/12/15 02:15:55;;;;;;;0.53;0.53;;;5.70;99.90;;;;;;5070270;28;20192;-83
2020/12/15 02:18:21;;;;;;;0.83;0.80;;;5.70;99.90;;;;;;5063587;28;20727;-85
2020/12/15 02:20:47;;;;;;;0.23;0.23;;;5.60;99.90;;;;;;5069349;28;20277;-84
2020/12/15 02:23:12;;;;;;;0.17;0.17;;;5.60;99.90;;;;;;5072759;28;20196;-84
2020/12/15 02:25:38;;;;;;;0.20;0.20;;;5.50;99.90;;;;;;5070123;28;20216;-84
2020/12/15 02:28:03;;;;;;;0.30;0.23;;;5.60;99.90;;;;;;5068512;28;20193;-83
2020/12/15 02:30:29;;;;;;;0.20;0.20;;;5.60;99.90;;;;;;5068722;28;20184;-84
2020/12/15 02:32:55;;;;;;;0.47;0.47;;;5.60;99.90;;;;;;5069733;28;20201;-84
2020/12/15 02:35:20;;;;;;;0.10;0.10;;;5.50;99.90;;;;;;5066750;28;20587;-84
2020/12/15 02:37:46;;;;;;;0.30;0.30;;;5.50;99.90;;;;;;5067686;28;20515;-84
2020/12/15 02:40:11;;;;;;;0.20;0.20;;;5.50;99.90;;;;;;5068081;28;20563;-84
2020/12/15 02:42:37;;;;;;;0.20;0.20;;;5.50;99.90;;;;;;5068866;28;20579;-83
2020/12/15 02:45:03;;;;;;;0.47;0.47;;;5.50;99.90;;;;;;5072784;28;20209;-85
2020/12/15 02:47:29;;;;;;;0.20;0.20;;;5.50;99.90;;;;;;5071434;28;20301;-83
2020/12/15 02:49:54;;;;;;;0.20;0.20;;;5.60;99.90;;;;;;5072299;28;20282;-84
2020/12/15 02:52:20;;;;;;;0.73;0.53;;;5.80;99.90;;;;;;5072418;28;20680;-84
2020/12/15 02:54:50;;;;;;;1.20;1.13;;;5.80;99.90;;;;;;5072495;28;20192;-84
2020/12/15 02:57:16;;;;;;;0.17;0.17;;;5.90;99.90;;;;;;5072980;28;20206;-83
2020/12/15 02:59:45;;;;;;;3.13;0.30;;;6.00;99.90;;;;;;5070862;28;20210;-84
2020/12/15 03:02:11;;;;;;;0.60;0.60;;;5.90;99.90;;;;;;5071544;28;20249;-84
2020/12/15 03:04:37;;;;;;;0.50;0.50;;;5.80;99.90;;;;;;5073621;28;20240;-84
2020/12/15 03:07:05;;;;;;;0.30;0.20;;;6.00;99.90;;;;;;5074502;28;20193;-83
2020/12/15 03:09:31;;;;;;;0.20;0.20;;;6.20;99.90;;;;;;5071690;28;20185;-83
2020/12/15 03:11:58;;;;;;;0.40;0.40;;;6.30;99.90;;;;;;5072013;28;20216;-84
2020/12/15 03:14:24;;;;;;;0.43;0.43;;;6.30;99.90;;;;;;5071519;28;20276;-84
2020/12/15 03:16:49;;;;;;;0.40;0.40;;;6.30;99.90;;;;;;5073836;28;20315;-85
2020/12/15 03:19:15;;;;;;;0.77;0.67;;;6.10;99.90;;;;;;5071933;28;20193;-84
2020/12/15 03:21:41;;;;;;;0.20;0.20;;;5.90;99.90;;;;;;5075970;28;20200;-84
2020/12/15 03:24:07;;;;;;;0.13;0.13;;;5.80;99.90;;;;;;5076791;28;20192;-84
2020/12/15 03:26:33;;;;;;;0.73;0.70;;;5.80;99.90;;;;;;5073371;28;20223;-83
2020/12/15 03:28:58;;;;;;;0.10;0.10;;;5.80;99.90;;;;;;5069672;28;20188;-83
2020/12/15 03:31:24;;;;;;;0.70;0.50;;;5.70;99.90;;;;;;5071722;28;20200;-84
2020/12/15 03:33:49;;;;;;;1.37;0.73;;;5.60;99.90;;;;;;5077139;28;20222;-83
2020/12/15 03:36:16;;;;;;;0.33;0.33;;;5.60;99.90;;;;;;5070123;28;20657;-84
2020/12/15 03:38:42;;;;;;;0.40;0.40;;;5.50;99.90;;;;;;5071633;28;20188;-84
2020/12/15 03:41:09;;;;;;;1.27;0.67;;;5.50;99.90;;;;;;5070885;28;20212;-84
2020/12/15 03:43:35;;;;;;;0.23;0.23;;;5.60;99.90;;;;;;5072822;28;20189;-84
2020/12/15 03:46:00;;;;;;;0.97;0.70;;;5.60;99.90;;;;;;5071549;28;20220;-84
2020/12/15 03:48:26;;;;;;;0.30;0.30;;;5.60;99.90;;;;;;5070923;28;20192;-85
2020/12/15 03:50:52;;;;;;;0.20;0.20;;;5.60;99.90;;;;;;5070726;28;20209;-85
2020/12/15 03:53:18;;;;;;;0.37;0.37;;;5.70;99.90;;;;;;5071221;28;20181;-84
2020/12/15 03:55:47;;;;;;;0.20;0.20;;;5.70;99.90;;;;;;5067806;28;20196;-84
2020/12/15 03:58:14;;;;;;;1.53;1.43;;;5.80;99.90;;;;;;5071073;28;20196;-84
2020/12/15 04:00:40;;;;;;;0.27;0.27;;;5.80;99.90;;;;;;5072436;28;20184;-84
2020/12/15 04:03:05;;;;;;;0.50;0.50;;;5.80;99.90;;;;;;5072811;28;20213;-83
2020/12/15 04:05:31;;;;;;;0.43;0.43;;;5.80;99.90;;;;;;5070902;28;20213;-84
2020/12/15 04:07:56;;;;;;;1.07;0.87;;;5.80;99.90;;;;;;5073446;28;20227;-84
2020/12/15 04:10:22;;;;;;;0.20;0.20;;;5.80;99.90;;;;;;5070790;28;20268;-84
2020/12/15 04:12:48;;;;;;;0.33;0.33;;;5.80;99.90;;;;;;5071061;28;20208;-84
2020/12/15 04:15:13;;;;;;;0.67;0.43;;;5.80;99.90;;;;;;5071955;28;20278;-84
2020/12/15 04:17:39;;;;;;;0.37;0.37;;;5.90;99.90;;;;;;5071563;28;20181;-83
2020/12/15 04:20:06;;;;;;;0.57;0.57;;;5.90;99.90;;;;;;5070086;28;20193;-85
2020/12/15 04:22:32;;;;;;;2.20;0.33;;;5.80;99.90;;;;;;5070396;28;20303;-84
2020/12/15 04:24:59;;;;;;;0.17;0.17;;;6.00;99.90;;;;;;5071527;28;20210;-85
2020/12/15 04:27:25;;;;;;;0.83;0.47;;;6.00;99.90;;;;;;5070549;28;20212;-84
2020/12/15 04:29:50;;;;;;;0.97;0.77;;;6.00;99.90;;;;;;5069141;28;20187;-84
2020/12/15 04:32:16;;;;;;;7.67;1.07;;;6.00;99.90;;;;;;5068974;28;20266;-84
2020/12/15 04:34:41;;;;;;;0.67;0.67;;;6.00;99.90;;;;;;5070039;28;20226;-85
2020/12/15 04:37:07;;;;;;;0.20;0.20;;;6.00;99.90;;;;;;5070571;28;20195;-84
2020/12/15 04:39:32;;;;;;;0.47;0.47;;;6.00;99.90;;;;;;5070822;28;20199;-85
2020/12/15 04:41:59;;;;;;;0.70;0.70;;;6.00;99.90;;;;;;5070710;28;20209;-84
2020/12/15 04:44:25;;;;;;;1.80;0.50;;;6.00;99.90;;;;;;5072068;28;20218;-84
2020/12/15 04:47:41;;;;;;;0.50;0.50;;;6.00;99.90;;;;;;5069887;28;20201;-83
2020/12/15 04:50:09;;;;;;;1.27;0.70;;;6.00;99.90;;;;;;5062236;28;20192;-84
2020/12/15 04:52:58;;;;;;;0.20;0.20;;;5.90;99.90;;;;;;5071983;28;20227;-85
2020/12/15 04:55:25;;;;;;;0.57;0.57;;;5.90;99.90;;;;;;5058907;28;20177;-84
2020/12/15 04:57:53;;;;;;;0.67;0.67;;;6.00;99.90;;;;;;5069951;28;20177;-84
2020/12/15 05:00:19;;;;;;;0.90;0.90;;;6.00;99.90;;;;;;5071454;28;20188;-84
2020/12/15 05:02:52;;;;;;;0.83;0.50;;;5.90;99.90;;;;;;5070734;28;20214;-84
2020/12/15 05:05:22;;;;;;;0.30;0.30;;;6.00;99.90;;;;;;5071573;28;20676;-84
2020/12/15 05:07:47;;;;;;;0.60;0.30;;;6.00;99.90;;;;;;5074349;28;20177;-85
2020/12/15 05:10:14;;;;;;;0.30;0.30;;;6.00;99.90;;;;;;5069429;28;20316;-84
2020/12/15 05:12:41;;;;;;;0.43;0.43;;;6.00;99.90;;;;;;5069245;28;20841;-84
2020/12/15 05:15:11;;;;;;;0.27;0.27;;;6.00;99.90;;;;;;5070734;28;20271;-85
2020/12/15 05:17:39;;;;;;;0.60;0.60;;;6.00;99.90;;;;;;5069399;28;20188;-84
2020/12/15 05:20:28;;;;;;;1.07;0.80;;;5.90;99.90;;;;;;5069062;28;20220;-84
2020/12/15 05:22:54;;;;;;;0.50;0.50;;;6.00;99.90;;;;;;5063711;28;20192;-84
2020/12/15 05:25:29;;;;;;;0.70;0.70;;;5.90;99.90;;;;;;5071168;28;20239;-84
2020/12/15 05:27:57;;;;;;;0.50;0.50;;;6.00;99.90;;;;;;5058412;28;20237;-85
2020/12/15 05:30:22;;;;;;;0.30;0.30;;;6.00;99.90;;;;;;5063648;28;20303;-85
2020/12/15 05:32:56;;;;;;;0.30;0.30;;;6.10;99.90;;;;;;5061108;28;20327;-85
2020/12/15 05:35:33;;;;;;;0.20;0.20;;;6.20;99.90;;;;;;5066439;28;20186;-85
2020/12/15 05:38:00;;;;;;;0.20;0.20;;;6.20;99.90;;;;;;5068664;28;20188;-85
2020/12/15 05:40:26;;;;;;;0.20;0.20;;;6.30;99.90;;;;;;5068995;28;20218;-85
2020/12/15 05:42:57;;;;;;;0.20;0.20;;;6.30;99.90;;;;;;5069666;28;20204;-85
2020/12/15 05:45:25;;;;;;;0.70;0.70;;;6.50;99.90;;;;;;5065919;28;20569;-85
2020/12/15 05:48:03;;;;;;;1.33;0.67;;;6.30;99.90;;;;;;5069980;28;20672;-84
2020/12/15 05:50:29;;;;;;;0.27;0.27;;;6.30;99.90;;;;;;5070171;28;20271;-85
2020/12/15 05:52:59;;;;;;;0.20;0.20;;;6.10;99.90;;;;;;5067998;28;20248;-85
2020/12/15 05:55:25;;;;;;;0.93;0.80;;;6.10;99.90;;;;;;5066774;28;20242;-84
2020/12/15 05:57:52;;;;;;;0.23;0.23;;;6.00;99.90;;;;;;5063535;28;20646;-84
2020/12/15 06:00:18;;;;;;;0.20;0.20;;;6.00;99.90;;;;;;5066845;28;20192;-85
2020/12/15 06:02:44;;;;;;;0.40;0.40;;;6.00;99.90;;;;;;5068388;28;20261;-84
2020/12/15 06:05:10;;;;;;;0.30;0.30;;;6.00;99.90;;;;;;5070129;28;20751;-84
2020/12/15 06:07:36;;;;;;;0.30;0.30;;;6.00;99.90;;;;;;5067791;28;20661;-84
2020/12/15 06:10:05;;;;;;;0.60;0.60;;;6.00;99.90;;;;;;5068504;28;20185;-85
2020/12/15 06:12:31;;;;;;;0.93;0.30;;;6.00;99.90;;;;;;5069498;28;20201;-85
2020/12/15 06:14:56;;;;;;;6.53;0.93;;;6.00;99.90;;;;;;5065729;28;20207;-84
2020/12/15 06:17:22;;;;;;;0.40;0.40;;;6.10;99.90;;;;;;5075125;28;20239;-85
2020/12/15 06:19:55;;;;;;;0.33;0.33;;;6.10;99.90;;;;;;5070004;28;20203;-85
2020/12/15 06:22:22;;;;;;;0.40;0.40;;;6.20;99.90;;;;;;5063307;28;20212;-85
2020/12/15 06:24:56;;;;;;;0.20;0.20;;;6.20;99.90;;;;;;5068682;28;20208;-85
2020/12/15 06:27:36;;;;;;;0.47;0.47;;;6.20;99.90;;;;;;5071679;28;20184;-85
2020/12/15 06:30:05;;;;;;;1.13;0.50;;;6.20;99.90;;;;;;5084998;28;20185;-86
2020/12/15 06:32:30;;;;;;;0.20;0.20;;;6.20;99.90;;;;;;5067572;28;20639;-85
2020/12/15 06:35:06;;;;;;;0.50;0.30;;;6.20;99.90;;;;;;5069349;28;20209;-86
2020/12/15 06:37:36;;;;;;;0.40;0.30;;;6.20;99.90;;;;;;5072062;28;20730;-86
2020/12/15 06:40:04;;;;;;;0.43;0.33;;;6.30;99.90;;;;;;5067817;28;20186;-84
2020/12/15 06:42:30;;;;;;;0.40;0.30;;;6.40;99.90;;;;;;5088497;28;20291;-84
2020/12/15 06:45:23;;;;;;;0.33;0.33;;;6.30;99.90;;;;;;5070486;28;20327;-84
2020/12/15 06:48:01;;;;;;;0.33;0.27;;;6.20;99.90;;;;;;5071354;28;20182;-83
2020/12/15 06:50:27;;;;;;;2.00;0.63;;;6.20;99.90;;;;;;5067690;28;20250;-84
2020/12/15 06:52:53;;;;;;;1.93;1.83;;;6.10;99.90;;;;;;5069203;28;20205;-84
2020/12/15 06:55:31;;;;;;;0.93;0.43;;;6.00;99.90;;;;;;5066721;28;20238;-84
2020/12/15 06:58:00;;;;;;;0.33;0.33;;;6.10;99.90;;;;;;5071768;28;20218;-84
2020/12/15 07:00:34;;;;;;;0.37;0.37;;;6.40;99.90;;;;;;5070849;28;20200;-85
2020/12/15 07:03:01;;;;;;;0.60;0.60;;;6.50;99.90;;;;;;5068031;28;20195;-85
2020/12/15 07:05:30;;;;;;;0.40;0.40;;;6.50;99.90;;;;;;5069696;28;20205;-84
2020/12/15 07:07:58;;;;;;;0.30;0.30;;;6.40;99.90;;;;;;5073434;28;20180;-85
2020/12/15 07:10:26;;;;;;;0.70;0.70;;;6.50;99.90;;;;;;5066277;28;20181;-85
2020/12/15 07:12:52;;;;;;;0.80;0.57;;;6.30;99.90;;;;;;5069708;28;20761;-84
2020/12/15 07:15:19;;;;;;;0.67;0.67;;;6.20;99.90;;;;;;5068521;28;20185;-85
2020/12/15 07:17:46;;;;;;;0.37;0.37;;;6.20;99.90;;;;;;5069305;28;20595;-84
2020/12/15 07:20:13;;;;;;;1.23;0.73;;;6.30;99.90;;;;;;5066399;28;20584;-85
2020/12/15 07:22:38;;;;;;;0.57;0.57;;;6.40;99.90;;;;;;5073943;28;20279;-83
2020/12/15 07:25:05;;;;;;;1.10;0.70;;;6.20;99.90;;;;;;5071507;28;20292;-84
2020/12/15 07:27:32;;;;;;;1.37;1.27;;;6.20;99.90;;;;;;5069494;28;20562;-84
2020/12/15 07:29:58;;;;;;;0.73;0.30;;;6.10;99.90;;;;;;5066807;28;20288;-84
2020/12/15 07:32:25;;;;;;;0.63;0.63;;;6.10;99.90;;;;;;5068726;28;20208;-84
2020/12/15 07:35:09;;;;;;;0.70;0.70;;;6.30;99.90;;;;;;5066424;28;20181;-83
2020/12/15 07:37:38;;;;;;;0.33;0.33;;;6.20;99.90;;;;;;5069211;28;20184;-82
2020/12/15 07:40:05;;;;;;;1.00;1.00;;;6.20;99.90;;;;;;5069214;28;20181;-83
2020/12/15 07:42:31;;;;;;;1.80;0.93;;;6.20;99.90;;;;;;5070944;28;20223;-83
2020/12/15 07:45:03;;;;;;;1.30;0.90;;;6.20;99.90;;;;;;5071335;28;20680;-83
2020/12/15 07:47:28;;;;;;;0.33;0.33;;;6.10;99.90;;;;;;5072538;28;20211;-83
2020/12/15 07:49:55;;;;;;;0.93;0.73;;;6.10;99.90;;;;;;5071355;28;20242;-83
2020/12/15 07:52:38;;;;;;;0.43;0.43;;;6.20;99.90;;;;;;5071058;28;20193;-83
2020/12/15 07:55:07;;;;;;;0.40;0.40;;;6.30;99.90;;;;;;5070218;28;20187;-84
2020/12/15 07:57:35;;;;;;;0.40;0.30;;;6.30;99.90;;;;;;5071930;28;20184;-84
2020/12/15 08:00:08;;;;;;;0.60;0.60;;;6.40;99.90;;;;;;5065603;28;20183;-83
2020/12/15 08:02:34;;;;;;;0.30;0.30;;;6.30;99.90;;;;;;5071585;28;20254;-83
2020/12/15 08:05:18;;;;;;;0.20;0.20;;;6.40;99.90;;;;;;5070883;28;20590;-83
2020/12/15 08:07:52;;;;;;;1.20;0.73;;;6.60;99.90;;;;;;5083108;28;20178;-83
2020/12/15 08:10:32;;;;;;;0.53;0.53;;;6.30;99.90;;;;;;5064543;28;20246;-83
2020/12/15 08:13:00;;;;;;;0.80;0.80;;;6.40;99.90;;;;;;5068742;28;20177;-83
2020/12/15 08:15:30;;;;;;;0.40;0.40;;;6.40;99.90;;;;;;5070330;28;20660;-84
2020/12/15 08:17:58;;;;;;;0.83;0.57;;;6.30;99.90;;;;;;5066991;28;20654;-84
2020/12/15 08:20:27;;;;;;;0.33;0.33;;;6.30;99.90;;;;;;5058657;28;20217;-83
2020/12/15 08:23:10;;;;;;;0.20;0.20;;;6.50;99.90;;;;;;5072289;28;20293;-83
2020/12/15 08:25:39;;;;;;;0.83;0.83;;;6.60;99.90;;;;;;5060752;28;20227;-84
2020/12/15 08:28:12;;;;;;;0.33;0.33;;;6.50;99.90;;;;;;5065976;28;20211;-83
2020/12/15 08:30:39;;;;;;;0.30;0.30;;;6.40;99.90;;;;;;5061901;28;20338;-83
2020/12/15 08:33:05;;;;;;;0.63;0.63;;;6.40;99.90;;;;;;5067034;28;20181;-83
2020/12/15 08:35:31;;;;;;;0.17;0.17;;;6.40;99.90;;;;;;5067274;28;20181;-84
2020/12/15 08:38:03;;;;;;;0.93;0.63;;;6.30;99.90;;;;;;5068544;28;20268;-83
2020/12/15 08:40:29;;;;;;;1.30;1.00;;;6.40;99.90;;;;;;5067960;28;20610;-83
2020/12/15 08:42:59;;;;;;;0.80;0.70;;;6.50;99.90;;;;;;5067663;28;20561;-85
2020/12/15 08:45:26;;;;;;;0.90;0.90;;;6.40;99.90;;;;;;5071085;28;20262;-85
2020/12/15 08:47:53;;;;;;;0.83;0.47;;;6.50;99.90;;;;;;5065625;28;20210;-84
2020/12/15 08:50:19;;;;;;;0.30;0.30;;;6.60;99.90;;;;;;5070327;28;20209;-83
2020/12/15 08:52:46;;;;;;;0.33;0.33;;;6.60;99.90;;;;;;5068035;28;20245;-83
2020/12/15 08:55:11;;;;;;;0.60;0.60;;;6.70;99.90;;;;;;5066411;28;20189;-83
2020/12/15 08:57:37;;;;;;;1.83;0.60;;;6.70;99.90;;;;;;5071706;28;20272;-83
2020/12/15 09:00:10;;;;;;;0.70;0.53;;;6.70;99.90;;;;;;5070228;28;20195;-83
2020/12/15 09:02:36;;;;;;;0.73;0.50;;;6.60;99.90;;;;;;5068473;28;20197;-83
2020/12/15 09:05:06;;;;;;;0.40;0.40;;;6.70;99.90;;;;;;5067146;28;20351;-83
2020/12/15 09:07:32;;;;;;;0.67;0.67;;;6.70;99.90;;;;;;5070287;28;20189;-83
2020/12/15 09:10:15;;;;;;;0.70;0.50;;;6.70;99.90;;;;;;5069547;28;20738;-83
2020/12/15 09:12:45;;;;;;;0.73;0.73;;;6.90;99.90;;;;;;5057099;28;20197;-83
2020/12/15 09:15:11;;;;;;;1.17;1.03;;;6.90;99.90;;;;;;5057590;28;20196;-82
2020/12/15 09:17:36;;;;;;;2.97;1.17;;;7.00;99.90;;;;;;5064341;28;20239;-83
2020/12/15 09:20:04;;;;;;;1.17;1.03;;;7.10;99.90;;;;;;5064960;28;20329;-83
2020/12/15 09:22:30;;;;;;;0.20;0.20;;;7.20;99.90;;;;;;5078119;28;20699;-84
2020/12/15 09:24:57;;;;;;;0.33;0.33;;;7.30;99.90;;;;;;5067941;28;20240;-83
2020/12/15 09:27:24;;;;;;;1.40;1.30;;;7.30;99.90;;;;;;5066621;28;20314;-85
2020/12/15 09:29:50;;;;;;;1.60;0.70;;;7.50;99.90;;;;;;5066573;28;20177;-85
2020/12/15 09:32:18;;;;;;;0.97;0.93;;;7.60;99.90;;;;;;5067752;28;20272;-83
2020/12/15 09:34:45;;;;;;;0.50;0.50;;;7.60;99.90;;;;;;5065361;28;20200;-84
2020/12/15 09:37:11;;;;;;;1.53;1.43;;;7.70;99.90;;;;;;5067917;28;20177;-84
2020/12/15 09:39:39;;;;;;;1.00;1.00;;;7.60;99.90;;;;;;5067553;28;20200;-84
2020/12/15 09:42:05;;;;;;;1.13;1.03;;;7.60;99.90;;;;;;5071371;28;20204;-84
2020/12/15 09:44:31;;;;;;;2.97;1.23;;;7.60;99.90;;;;;;5066632;28;20180;-84
2020/12/15 09:46:57;;;;;;;0.50;0.40;;;7.70;99.90;;;;;;5069526;28;20619;-84
2020/12/15 09:49:22;;;;;;;0.30;0.30;;;8.10;99.90;;;;;;5063589;28;20176;-84
2020/12/15 09:51:49;;;;;;;0.50;0.50;;;8.20;99.90;;;;;;5070079;28;20200;-84
2020/12/15 09:54:14;;;;;;;0.63;0.60;;;8.30;99.90;;;;;;5066738;28;20487;-84
2020/12/15 09:56:44;;;;;;;0.60;0.60;;;8.40;99.90;;;;;;5067862;28;20184;-84
2020/12/15 09:59:14;;;;;;;1.10;0.53;;;8.50;99.90;;;;;;5069508;28;20186;-84
2020/12/15 10:01:41;;;;;;;0.50;0.50;;;8.40;99.90;;;;;;5056846;28;20356;-84
2020/12/15 10:04:06;;;;;;;0.40;0.40;;;8.40;99.90;;;;;;5066262;28;20273;-84
2020/12/15 10:06:32;;;;;;;0.60;0.60;;;8.60;99.90;;;;;;5058491;28;20305;-84
2020/12/15 10:08:57;;;;;;;0.70;0.70;;;8.50;99.90;;;;;;5068378;28;20700;-84
2020/12/15 10:11:25;;;;;;;0.83;0.83;;;8.20;99.90;;;;;;5065501;28;20250;-84
2020/12/15 10:13:51;;;;;;;0.63;0.63;;;7.80;99.90;;;;;;5069006;28;20223;-84
2020/12/15 10:16:16;;;;;;;0.60;0.60;;;7.80;99.90;;;;;;5071427;28;20181;-84
2020/12/15 10:18:42;;;;;;;0.40;0.37;;;7.80;99.90;;;;;;5069765;28;20185;-85
2020/12/15 10:21:07;;;;;;;3.47;1.17;;;7.60;99.90;;;;;;5069499;28;20254;-84
2020/12/15 10:23:34;;;;;;;0.97;0.77;;;7.60;99.90;;;;;;5066703;28;20181;-85
2020/12/15 10:26:01;;;;;;;1.53;0.67;;;7.70;99.90;;;;;;5069188;28;20193;-85
2020/12/15 10:28:27;;;;;;;1.93;1.10;;;7.70;99.90;;;;;;5068307;28;20234;-84
2020/12/15 10:30:52;;;;;;;0.27;0.27;;;7.70;99.90;;;;;;5067426;28;20718;-84
2020/12/15 10:33:18;;;;;;;2.57;0.83;;;7.60;99.90;;;;;;5087398;28;20184;-84
2020/12/15 10:35:43;;;;;;;4.50;1.17;;;7.40;99.90;;;;;;5062904;28;20563;-84
2020/12/15 10:38:09;;;;;;;0.60;0.60;;;7.50;99.90;;;;;;5069199;28;20189;-84
2020/12/15 10:40:34;;;;;;;0.43;0.40;;;7.50;99.90;;;;;;5068264;28;20200;-84
2020/12/15 10:43:01;;;;;;;0.80;0.67;;;7.50;99.90;;;;;;5068461;28;20192;-84
2020/12/15 10:45:27;;;;;;;0.20;0.20;;;7.40;99.90;;;;;;5068499;28;20215;-84
2020/12/15 10:47:52;;;;;;;1.10;1.00;;;7.30;99.90;;;;;;5068150;28;20181;-85
2020/12/15 10:50:18;;;;;;;0.40;0.40;;;7.30;99.90;;;;;;5068235;28;20692;-85
2020/12/15 10:52:44;;;;;;;0.57;0.57;;;7.40;99.90;;;;;;5064859;28;20227;-86
2020/12/15 10:55:10;;;;;;;1.20;0.57;;;7.30;99.90;;;;;;5068754;28;20185;-86
2020/12/15 10:57:36;;;;;;;0.97;0.53;;;7.50;99.90;;;;;;5067588;28;20338;-85
2020/12/15 11:00:05;;;;;;;0.83;0.83;;;7.50;99.90;;;;;;5066086;28;20310;-85
2020/12/15 11:02:31;;;;;;;0.57;0.57;;;7.30;99.90;;;;;;5068065;28;20566;-84
2020/12/15 11:04:56;;;;;;;0.40;0.40;;;7.20;99.90;;;;;;5071062;28;20211;-85
2020/12/15 11:07:22;;;;;;;0.77;0.70;;;7.20;99.90;;;;;;5072009;28;20633;-86
2020/12/15 11:09:47;;;;;;;0.60;0.60;;;7.40;99.90;;;;;;5060228;28;20637;-85
2020/12/15 11:12:13;;;;;;;0.83;0.83;;;7.50;99.90;;;;;;5069994;28;20266;-85
2020/12/15 11:14:38;;;;;;;0.60;0.60;;;7.70;99.90;;;;;;5070151;28;20193;-85
2020/12/15 11:17:04;;;;;;;0.57;0.37;;;7.60;99.90;;;;;;5066665;28;20178;-85
2020/12/15 11:19:30;;;;;;;0.70;0.70;;;7.50;99.90;;;;;;5070559;28;20261;-86
2020/12/15 11:21:56;;;;;;;0.43;0.43;;;7.40;99.90;;;;;;5070715;28;20198;-86
2020/12/15 11:24:22;;;;;;;1.37;0.83;;;7.50;99.90;;;;;;5070502;28;20590;-86
2020/12/15 11:26:51;;;;;;;0.33;0.33;;;7.40;99.90;;;;;;5068356;28;20232;-85
2020/12/15 11:29:17;;;;;;;1.20;1.20;;;7.50;99.90;;;;;;5064422;28;20181;-85
2020/12/15 11:31:42;;;;;;;0.43;0.43;;;7.40;99.90;;;;;;5070040;28;20256;-86
2020/12/15 11:34:08;;;;;;;1.37;1.07;;;7.40;99.90;;;;;;5071504;28;20185;-85
2020/12/15 11:36:34;;;;;;;2.30;0.77;;;7.50;99.90;;;;;;5062988;28;20194;-84
2020/12/15 11:39:00;;;;;;;0.47;0.40;;;7.70;99.90;;;;;;5071375;28;20189;-84
2020/12/15 11:41:27;;;;;;;0.60;0.60;;;7.80;99.90;;;;;;5071031;28;20213;-85
2020/12/15 11:43:53;;;;;;;0.50;0.50;;;7.80;99.90;;;;;;5067695;28;20658;-86
2020/12/15 11:46:19;;;;;;;0.50;0.50;;;7.80;99.90;;;;;;5064553;28;20208;-85
2020/12/15 11:48:44;;;;;;;1.13;0.50;;;7.70;99.90;;;;;;5071008;28;20183;-85
2020/12/15 11:51:10;;;;;;;1.27;0.60;;;7.60;99.90;;;;;;5065398;28;20205;-86
2020/12/15 11:53:35;;;;;;;0.40;0.30;;;7.50;99.90;;;;;;5067750;28;20208;-84
2020/12/15 11:56:01;;;;;;;0.90;0.47;;;7.50;99.90;;;;;;5073799;28;20212;-85
2020/12/15 11:58:26;;;;;;;0.40;0.40;;;7.80;99.90;;;;;;5064902;28;20280;-86
2020/12/15 12:00:52;;;;;;;0.30;0.30;;;8.00;99.90;;;;;;5070566;28;20192;-85
2020/12/15 12:03:18;;;;;;;0.63;0.47;;;8.20;99.90;;;;;;5069096;28;20189;-85
2020/12/15 12:05:43;;;;;;;1.07;0.80;;;8.30;99.90;;;;;;5068366;28;20232;-85
2020/12/15 12:08:09;;;;;;;1.20;0.93;;;7.90;99.90;;;;;;5080419;28;20296;-85
2020/12/15 12:10:34;;;;;;;0.87;0.87;;;7.90;99.90;;;;;;5068982;28;20667;-84
2020/12/15 12:13:00;;;;;;;0.30;0.30;;;8.10;99.90;;;;;;5067913;28;20303;-84
2020/12/15 12:15:27;;;;;;;3.03;0.67;;;8.00;99.90;;;;;;5069715;28;20302;-84
2020/12/15 12:17:53;;;;;;;0.33;0.30;;;8.00;99.90;;;;;;5071068;28;20193;-85
2020/12/15 12:20:18;;;;;;;0.97;0.57;;;8.10;99.90;;;;;;5069755;28;20202;-84
2020/12/15 12:22:44;;;;;;;0.37;0.37;;;8.20;99.90;;;;;;5068842;28;20197;-84
2020/12/15 12:25:10;;;;;;;0.87;0.87;;;8.20;99.90;;;;;;5068681;28;20684;-84
2020/12/15 12:27:37;;;;;;;0.57;0.57;;;8.00;99.90;;;;;;5068062;28;20189;-83
2020/12/15 12:30:03;;;;;;;2.50;1.33;;;8.00;99.90;;;;;;5068082;28;20182;-83
2020/12/15 12:32:29;;;;;;;0.87;0.87;;;8.00;99.90;;;;;;5063435;28;20590;-84
2020/12/15 12:34:54;;;;;;;0.60;0.53;;;7.80;99.90;;;;;;5070660;28;20192;-85
2020/12/15 12:37:20;;;;;;;0.40;0.40;;;7.90;99.90;;;;;;5067407;28;20181;-84
2020/12/15 12:39:45;;;;;;;0.53;0.53;;;8.20;99.90;;;;;;5070149;28;20192;-84
2020/12/15 12:42:12;;;;;;;0.10;0.10;;;8.40;99.90;;;;;;5068580;28;20202;-84
2020/12/15 12:44:38;;;;;;;1.00;0.83;;;8.40;99.90;;;;;;5068812;28;20319;-85
2020/12/15 12:47:04;;;;;;;0.63;0.60;;;8.50;99.90;;;;;;5070439;28;20205;-84
2020/12/15 12:49:29;;;;;;;2.30;0.50;;;8.40;99.90;;;;;;5068789;28;20812;-85
2020/12/15 12:51:56;;;;;;;1.17;0.93;;;8.30;99.90;;;;;;5068938;28;20199;-84
2020/12/15 12:54:22;;;;;;;1.53;1.10;;;8.20;99.90;;;;;;5068700;28;20175;-84
2020/12/15 12:56:48;;;;;;;1.70;0.93;;;8.10;99.90;;;;;;5064831;28;20247;-85
2020/12/15 12:59:14;;;;;;;0.77;0.53;;;8.00;99.90;;;;;;5068901;28;20867;-84